createdAt,value
2022-12-28T00:01:13.016Z,5.04
2022-12-28T00:03:39.741Z,4.97
2022-12-28T00:06:07.294Z,4.97
2022-12-28T00:08:34.034Z,5.02
2022-12-28T00:11:08.900Z,4.97
2022-12-28T00:13:37.362Z,4.87
2022-12-28T00:16:13.945Z,4.87
2022-12-28T00:18:40.772Z,4.89
2022-12-28T00:21:07.400Z,4.89
2022-12-28T00:23:34.135Z,4.83
2022-12-28T00:26:08.797Z,4.86
2022-12-28T00:28:35.565Z,4.97
2022-12-28T00:31:02.432Z,4.96
2022-12-28T00:33:29.167Z,4.95
2022-12-28T00:35:57.185Z,4.96
2022-12-28T00:38:24.286Z,4.96
2022-12-28T00:40:50.997Z,4.96
2022-12-28T00:43:17.816Z,4.99
2022-12-28T00:45:45.755Z,4.98
2022-12-28T00:48:12.786Z,4.99
2022-12-28T00:50:40.010Z,4.87
2022-12-28T00:53:07.230Z,5.06
2022-12-28T00:55:34.799Z,5.02
2022-12-28T00:58:02.484Z,5.00
2022-12-28T01:00:29.656Z,4.98
2022-12-28T01:02:56.973Z,5.03
2022-12-28T01:05:24.140Z,4.98
2022-12-28T01:07:51.241Z,4.92
2022-12-28T01:10:18.326Z,4.92
2022-12-28T01:12:45.318Z,4.84
2022-12-28T01:15:13.407Z,4.79
2022-12-28T01:17:40.299Z,4.77
2022-12-28T01:20:08.326Z,4.79
2022-12-28T01:22:35.051Z,4.86
2022-12-28T01:25:01.773Z,4.82
2022-12-28T01:27:28.466Z,4.82
2022-12-28T01:29:55.080Z,4.80
2022-12-28T01:32:21.932Z,4.74
2022-12-28T01:34:48.477Z,4.86
2022-12-28T01:37:15.084Z,4.92
2022-12-28T01:39:41.775Z,4.97
2022-12-28T01:42:16.662Z,5.03
2022-12-28T01:44:46.191Z,4.96
2022-12-28T01:47:22.537Z,5.00
2022-12-28T01:50:10.364Z,5.07
2022-12-28T01:52:40.868Z,5.06
2022-12-28T01:55:15.849Z,5.06
2022-12-28T01:57:47.618Z,5.09
2022-12-28T02:00:16.173Z,5.05
2022-12-28T02:02:46.835Z,5.10
2022-12-28T02:05:14.382Z,5.22
2022-12-28T02:07:47.761Z,5.19
2022-12-28T02:10:41.114Z,5.23
2022-12-28T02:13:03.733Z,5.20
2022-12-28T02:15:30.519Z,5.25
2022-12-28T02:17:57.931Z,5.32
2022-12-28T02:20:34.983Z,5.28
2022-12-28T02:23:28.035Z,5.34
2022-12-28T02:26:39.923Z,5.40
2022-12-28T02:29:25.925Z,5.39
2022-12-28T02:32:06.359Z,5.46
2022-12-28T02:34:41.467Z,5.52
2022-12-28T02:37:17.655Z,5.47
2022-12-28T02:39:53.299Z,5.51
2022-12-28T02:42:21.208Z,5.60
2022-12-28T02:45:06.678Z,5.60
2022-12-28T02:47:52.008Z,5.60
2022-12-28T02:50:18.981Z,5.64
2022-12-28T02:53:30.606Z,5.64
2022-12-28T02:56:10.900Z,5.70
2022-12-28T02:59:15.775Z,5.80
2022-12-28T03:01:54.805Z,5.75
2022-12-28T03:04:56.628Z,5.73
2022-12-28T03:07:57.154Z,5.80
2022-12-28T03:10:33.035Z,5.82
2022-12-28T03:13:33.006Z,5.85
2022-12-28T03:16:05.103Z,5.83
2022-12-28T03:18:51.344Z,5.85
2022-12-28T03:21:37.869Z,5.88
2022-12-28T03:24:24.225Z,5.91
2022-12-28T03:27:10.796Z,5.91
2022-12-28T03:30:00.210Z,5.94
2022-12-28T03:32:27.027Z,5.89
2022-12-28T03:34:54.003Z,6.04
2022-12-28T03:37:39.140Z,5.91
2022-12-28T03:40:29.692Z,5.99
2022-12-28T03:43:19.736Z,6.04
2022-12-28T03:45:47.481Z,6.06
2022-12-28T03:48:15.805Z,5.94
2022-12-28T03:50:44.697Z,6.03
2022-12-28T03:53:11.839Z,6.11
2022-12-28T03:55:38.750Z,6.10
2022-12-28T03:58:06.239Z,6.09
2022-12-28T04:00:33.539Z,6.12
2022-12-28T04:03:00.383Z,6.04
2022-12-28T04:05:27.466Z,6.10
2022-12-28T04:07:54.174Z,6.05
2022-12-28T04:10:20.873Z,6.12
2022-12-28T04:12:47.775Z,6.12
2022-12-28T04:15:14.670Z,6.17
2022-12-28T04:17:41.645Z,6.09
2022-12-28T04:20:09.355Z,6.11
2022-12-28T04:22:36.074Z,6.19
2022-12-28T04:25:03.709Z,6.13
2022-12-28T04:27:30.478Z,6.11
2022-12-28T04:29:57.159Z,6.16
2022-12-28T04:32:23.871Z,6.16
2022-12-28T04:34:50.584Z,6.20
2022-12-28T04:37:17.356Z,6.24
2022-12-28T04:39:55.173Z,6.17
2022-12-28T04:42:25.509Z,6.18
2022-12-28T04:44:52.277Z,6.16
2022-12-28T04:47:19.179Z,6.12
2022-12-28T04:49:45.912Z,6.12
2022-12-28T04:52:12.859Z,6.09
2022-12-28T04:54:39.685Z,6.09
2022-12-28T04:57:07.076Z,6.21
2022-12-28T04:59:34.105Z,6.15
2022-12-28T05:02:01.169Z,6.17
2022-12-28T05:04:28.127Z,6.22
2022-12-28T05:06:54.771Z,6.14
2022-12-28T05:09:21.657Z,6.12
2022-12-28T05:11:48.927Z,6.14
2022-12-28T05:14:16.059Z,6.20
2022-12-28T05:16:43.022Z,6.25
2022-12-28T05:19:09.822Z,6.23
2022-12-28T05:21:36.699Z,6.30
2022-12-28T05:24:03.685Z,6.24
2022-12-28T05:26:30.452Z,6.30
2022-12-28T05:28:59.129Z,6.25
2022-12-28T05:31:26.491Z,6.29
2022-12-28T05:33:54.368Z,6.30
2022-12-28T05:36:23.667Z,6.36
2022-12-28T05:38:51.058Z,6.39
2022-12-28T05:41:23.783Z,6.47
2022-12-28T05:43:50.685Z,6.41
2022-12-28T05:46:24.439Z,6.49
2022-12-28T05:48:51.429Z,6.42
2022-12-28T05:51:20.356Z,6.46
2022-12-28T05:53:47.436Z,6.55
2022-12-28T05:56:16.039Z,6.53
2022-12-28T05:58:43.961Z,6.52
2022-12-28T06:01:16.404Z,6.57
2022-12-28T06:03:44.790Z,6.61
2022-12-28T06:06:14.329Z,6.59
2022-12-28T06:08:42.538Z,6.60
2022-12-28T06:11:12.244Z,6.61
2022-12-28T06:13:39.497Z,6.54
2022-12-28T06:16:18.029Z,6.68
2022-12-28T06:18:45.463Z,6.73
2022-12-28T06:21:14.623Z,6.73
2022-12-28T06:23:42.231Z,6.72
2022-12-28T06:26:09.610Z,6.77
2022-12-28T06:28:40.386Z,6.83
2022-12-28T06:31:15.770Z,6.89
2022-12-28T06:33:43.029Z,6.82
2022-12-28T06:36:20.527Z,6.89
2022-12-28T06:38:49.204Z,6.90
2022-12-28T06:41:17.695Z,6.94
2022-12-28T06:43:45.741Z,6.93
2022-12-28T06:46:13.675Z,6.86
2022-12-28T06:48:40.836Z,6.95
2022-12-28T06:51:12.200Z,7.02
2022-12-28T06:53:39.291Z,7.00
2022-12-28T06:56:11.726Z,7.07
2022-12-28T06:58:38.750Z,7.07
2022-12-28T07:01:07.655Z,6.98
2022-12-28T07:03:34.940Z,7.02
2022-12-28T07:06:02.565Z,7.11
2022-12-28T07:08:29.889Z,7.08
2022-12-28T07:11:02.440Z,7.12
2022-12-28T07:13:29.257Z,7.17
2022-12-28T07:15:55.896Z,7.17
2022-12-28T07:18:22.720Z,7.30
2022-12-28T07:20:49.419Z,7.21
2022-12-28T07:23:16.295Z,7.18
2022-12-28T07:25:43.665Z,7.23
2022-12-28T07:28:10.379Z,7.31
2022-12-28T07:30:37.374Z,7.20
2022-12-28T07:33:04.781Z,7.22
2022-12-28T07:35:31.561Z,7.27
2022-12-28T07:37:58.302Z,7.27
2022-12-28T07:40:25.029Z,7.29
2022-12-28T07:42:51.956Z,7.28
2022-12-28T07:45:18.688Z,7.32
2022-12-28T07:47:45.450Z,7.35
2022-12-28T07:50:12.401Z,7.37
2022-12-28T07:52:39.247Z,7.40
2022-12-28T07:55:06.568Z,7.44
2022-12-28T07:57:34.485Z,7.37
2022-12-28T08:00:01.184Z,7.53
2022-12-28T08:02:28.075Z,7.48
2022-12-28T08:04:54.907Z,7.46
2022-12-28T08:07:21.614Z,7.51
2022-12-28T08:09:48.418Z,7.57
2022-12-28T08:12:15.051Z,7.57
2022-12-28T08:14:42.621Z,7.57
2022-12-28T08:17:09.388Z,7.51
2022-12-28T08:19:36.103Z,7.55
2022-12-28T08:22:02.890Z,7.60
2022-12-28T08:24:29.614Z,7.58
2022-12-28T08:26:56.382Z,7.63
2022-12-28T08:29:23.427Z,7.70
2022-12-28T08:31:50.480Z,7.73
2022-12-28T08:34:20.365Z,7.70
2022-12-28T08:36:47.244Z,7.71
2022-12-28T08:39:14.870Z,7.75
2022-12-28T08:41:41.982Z,7.78
2022-12-28T08:44:08.776Z,7.78
2022-12-28T08:46:36.539Z,7.80
2022-12-28T08:49:04.144Z,7.79
2022-12-28T08:51:33.003Z,7.79
2022-12-28T08:54:00.738Z,7.87
2022-12-28T08:56:30.231Z,7.96
2022-12-28T08:58:57.783Z,7.94
2022-12-28T09:01:27.108Z,7.93
2022-12-28T09:03:56.320Z,7.95
2022-12-28T09:06:31.893Z,7.95
2022-12-28T09:09:07.298Z,7.93
2022-12-28T09:11:39.444Z,7.97
2022-12-28T09:14:09.607Z,8.05
2022-12-28T09:16:37.209Z,7.98
2022-12-28T09:19:05.897Z,8.02
2022-12-28T09:21:35.492Z,8.01
2022-12-28T09:24:02.321Z,8.06
2022-12-28T09:26:32.051Z,7.98
2022-12-28T09:29:01.190Z,8.01
2022-12-28T09:31:30.167Z,8.01
2022-12-28T09:36:49.991Z,7.96
2022-12-28T09:39:19.540Z,8.01
2022-12-28T09:41:58.331Z,8.03
2022-12-28T09:45:04.350Z,8.12
2022-12-28T09:47:47.577Z,8.08
2022-12-28T09:50:28.657Z,8.04
2022-12-28T09:53:24.694Z,8.09
2022-12-28T09:55:54.389Z,8.08
2022-12-28T09:58:21.318Z,8.04
2022-12-28T10:00:50.204Z,8.12
2022-12-28T10:03:32.326Z,8.05
2022-12-28T10:05:59.842Z,8.03
2022-12-28T10:08:28.260Z,8.12
2022-12-28T10:10:57.536Z,8.09
2022-12-28T10:13:53.725Z,8.10
2022-12-28T10:16:19.384Z,8.15
2022-12-28T10:18:47.131Z,8.19
2022-12-28T10:21:19.710Z,8.13
2022-12-28T10:24:29.336Z,8.06
2022-12-28T10:26:35.585Z,8.17
2022-12-28T10:29:02.538Z,8.15
2022-12-28T10:31:37.709Z,8.24
2022-12-28T10:34:18.138Z,8.27
2022-12-28T10:36:45.069Z,8.29
2022-12-28T10:39:24.562Z,8.35
2022-12-28T10:41:51.903Z,8.32
2022-12-28T10:44:40.319Z,8.43
2022-12-28T10:47:18.137Z,8.53
2022-12-28T10:50:18.546Z,8.58
2022-12-28T10:52:38.040Z,8.65
2022-12-28T10:55:31.742Z,8.80
2022-12-28T10:58:30.110Z,8.93
2022-12-28T11:01:05.226Z,9.03
2022-12-28T11:03:38.684Z,9.14
2022-12-28T11:06:19.922Z,9.14
2022-12-28T11:09:20.317Z,9.31
2022-12-28T11:11:48.402Z,9.26
2022-12-28T11:14:30.831Z,9.36
2022-12-28T11:16:57.989Z,9.26
2022-12-28T11:19:25.910Z,9.18
2022-12-28T11:21:53.295Z,9.17
2022-12-28T11:24:21.460Z,9.17
2022-12-28T11:26:50.090Z,9.26
2022-12-28T11:29:18.560Z,9.27
2022-12-28T11:32:07.373Z,9.22
2022-12-28T11:34:34.313Z,9.16
2022-12-28T11:37:01.219Z,9.18
2022-12-28T11:39:32.661Z,9.14
2022-12-28T11:42:37.328Z,9.18
2022-12-28T11:44:49.253Z,9.23
2022-12-28T11:47:36.616Z,9.18
2022-12-28T11:50:35.212Z,9.15
2022-12-28T11:53:02.779Z,9.14
2022-12-28T11:55:56.313Z,9.27
2022-12-28T11:58:29.063Z,9.27
2022-12-28T12:00:57.228Z,9.21
2022-12-28T12:04:06.343Z,9.18
2022-12-28T12:07:30.648Z,9.22
2022-12-28T12:10:35.580Z,9.29
2022-12-28T12:13:23.806Z,9.27
2022-12-28T12:15:51.457Z,9.25
2022-12-28T12:18:23.866Z,9.35
2022-12-28T12:21:03.588Z,9.24
2022-12-28T12:23:55.672Z,9.30
2022-12-28T12:26:59.069Z,9.15
2022-12-28T12:29:37.540Z,9.26
2022-12-28T12:32:07.893Z,9.29
2022-12-28T12:34:42.908Z,9.34
2022-12-28T12:37:37.945Z,9.32
2022-12-28T12:40:31.972Z,9.28
2022-12-28T12:43:22.257Z,9.31
2022-12-28T12:46:00.662Z,9.41
2022-12-28T12:48:51.555Z,9.35
2022-12-28T12:51:33.687Z,9.34
2022-12-28T12:54:23.582Z,9.26
2022-12-28T12:56:55.746Z,9.22
2022-12-28T12:59:41.195Z,9.29
2022-12-28T13:02:59.659Z,9.34
2022-12-28T13:05:28.726Z,9.26
2022-12-28T13:07:58.364Z,9.25
2022-12-28T13:10:45.790Z,9.30
2022-12-28T13:13:36.127Z,9.25
2022-12-28T13:16:05.703Z,9.29
2022-12-28T13:18:47.856Z,9.39
2022-12-28T13:21:20.668Z,9.41
2022-12-28T13:23:55.582Z,9.36
2022-12-28T13:26:30.072Z,9.39
2022-12-28T13:29:02.760Z,9.44
2022-12-28T13:31:37.767Z,9.39
2022-12-28T13:34:14.314Z,9.36
2022-12-28T13:36:59.470Z,9.34
2022-12-28T13:39:33.168Z,9.45
2022-12-28T13:42:14.342Z,9.40
2022-12-28T13:45:02.146Z,9.46
2022-12-28T13:47:33.502Z,9.47
2022-12-28T13:50:07.443Z,9.39
2022-12-28T13:53:12.789Z,9.49
2022-12-28T13:56:01.162Z,9.50
2022-12-28T13:58:32.193Z,9.46
2022-12-28T14:01:00.791Z,9.53
2022-12-28T14:03:27.850Z,9.50
2022-12-28T14:06:00.313Z,9.48
2022-12-28T14:08:28.825Z,9.44
2022-12-28T14:10:55.964Z,9.45
2022-12-28T14:13:23.065Z,9.42
2022-12-28T14:15:50.258Z,9.43
2022-12-28T14:18:17.727Z,9.45
2022-12-28T14:20:52.143Z,9.42
2022-12-28T14:23:29.993Z,9.39
2022-12-28T14:25:58.886Z,9.34
2022-12-28T14:28:46.076Z,9.36
2022-12-28T14:31:14.795Z,9.31
2022-12-28T14:34:02.260Z,9.33
2022-12-28T14:36:43.194Z,9.34
2022-12-28T14:39:32.692Z,9.42
2022-12-28T14:42:05.692Z,9.40
2022-12-28T14:44:37.600Z,9.36
2022-12-28T14:47:56.777Z,9.39
2022-12-28T14:50:26.137Z,9.23
2022-12-28T14:53:09.934Z,9.28
2022-12-28T14:55:57.043Z,9.23
2022-12-28T14:58:27.067Z,9.22
2022-12-28T15:01:06.332Z,9.31
2022-12-28T15:03:58.165Z,9.26
2022-12-28T15:06:30.088Z,9.24
2022-12-28T15:08:59.094Z,9.22
2022-12-28T15:11:27.884Z,9.22
2022-12-28T15:13:54.765Z,9.21
2022-12-28T15:16:25.530Z,9.23
2022-12-28T15:18:53.562Z,9.21
2022-12-28T15:21:22.832Z,9.21
2022-12-28T15:23:53.730Z,9.15
2022-12-28T15:26:23.846Z,9.21
2022-12-28T15:28:51.187Z,9.18
2022-12-28T15:31:20.117Z,9.15
2022-12-28T15:33:47.791Z,9.22
2022-12-28T15:36:17.949Z,9.16
2022-12-28T15:38:46.627Z,9.22
2022-12-28T15:41:32.160Z,9.27
2022-12-28T15:44:02.128Z,9.25
2022-12-28T15:46:28.928Z,9.23
2022-12-28T15:48:55.741Z,9.17
2022-12-28T15:51:22.614Z,9.26
2022-12-28T15:53:49.658Z,9.25
2022-12-28T15:56:24.537Z,9.22
2022-12-28T15:58:56.036Z,9.24
2022-12-28T16:01:27.208Z,9.27
2022-12-28T16:03:55.618Z,9.13
2022-12-28T16:06:23.540Z,9.13
2022-12-28T16:08:56.479Z,9.20
2022-12-28T16:11:24.447Z,9.21
2022-12-28T16:13:56.543Z,9.24
2022-12-28T16:16:24.477Z,9.21
2022-12-28T16:18:54.820Z,9.20
2022-12-28T16:21:21.758Z,9.19
2022-12-28T16:23:48.617Z,9.19
2022-12-28T16:26:15.589Z,9.28
2022-12-28T16:28:42.326Z,9.24
2022-12-28T16:31:21.297Z,9.20
2022-12-28T16:33:48.115Z,9.14
2022-12-28T16:36:16.658Z,9.16
2022-12-28T16:38:43.360Z,9.19
2022-12-28T16:41:10.337Z,9.19
2022-12-28T16:43:37.360Z,9.12
2022-12-28T16:46:08.584Z,9.09
2022-12-28T16:48:35.748Z,9.09
2022-12-28T16:51:02.520Z,9.12
2022-12-28T16:53:29.982Z,9.02
2022-12-28T16:56:00.280Z,9.07
2022-12-28T16:58:27.903Z,9.03
2022-12-28T17:00:54.700Z,9.08
2022-12-28T17:03:21.469Z,9.06
2022-12-28T17:05:52.214Z,9.12
2022-12-28T17:08:19.456Z,9.11
2022-12-28T17:10:46.394Z,9.27
2022-12-28T17:13:13.230Z,9.31
2022-12-28T17:15:41.272Z,9.79
2022-12-28T17:18:08.542Z,10.02
2022-12-28T17:20:38.830Z,9.70
2022-12-28T17:23:06.656Z,9.69
2022-12-28T17:25:37.268Z,9.65
2022-12-28T17:28:04.303Z,9.52
2022-12-28T17:30:31.200Z,9.49
2022-12-28T17:32:58.357Z,9.46
2022-12-28T17:35:25.183Z,9.47
2022-12-28T17:37:52.033Z,9.43
2022-12-28T17:40:21.187Z,9.50
2022-12-28T17:42:48.191Z,9.39
2022-12-28T17:45:15.107Z,9.41
2022-12-28T17:47:41.735Z,9.38
2022-12-28T17:50:09.390Z,9.48
2022-12-28T17:52:36.241Z,9.49
2022-12-28T17:55:04.210Z,9.58
2022-12-28T17:57:38.456Z,9.59
2022-12-28T18:00:07.300Z,9.62
2022-12-28T18:02:34.187Z,9.54
2022-12-28T18:05:01.105Z,9.57
2022-12-28T18:07:27.789Z,9.46
2022-12-28T18:09:54.615Z,9.47
2022-12-28T18:12:21.564Z,9.54
2022-12-28T18:14:48.316Z,9.56
2022-12-28T18:17:17.789Z,9.58
2022-12-28T18:19:50.563Z,9.61
2022-12-28T18:22:17.223Z,9.58
2022-12-28T18:24:44.059Z,9.59
2022-12-28T18:27:10.744Z,9.65
2022-12-28T18:29:37.826Z,9.65
2022-12-28T18:32:04.751Z,9.58
2022-12-28T18:34:31.533Z,9.56
2022-12-28T18:36:58.719Z,9.57
2022-12-28T18:39:25.493Z,9.64
2022-12-28T18:41:52.207Z,9.60
2022-12-28T18:44:19.148Z,9.65
2022-12-28T18:46:45.884Z,9.69
2022-12-28T18:49:12.799Z,9.63
2022-12-28T18:51:39.553Z,9.61
2022-12-28T18:54:06.320Z,9.68
2022-12-28T18:56:33.033Z,9.70
2022-12-28T18:58:59.789Z,9.67
2022-12-28T19:04:16.233Z,9.74
2022-12-28T19:06:43.395Z,9.76
2022-12-28T19:09:10.926Z,9.71
2022-12-28T19:11:39.037Z,9.65
2022-12-28T19:14:07.712Z,9.68
2022-12-28T19:16:34.965Z,9.68
2022-12-28T19:19:01.764Z,9.64
2022-12-28T19:21:33.733Z,9.58
2022-12-28T19:24:10.761Z,9.65
2022-12-28T19:26:37.489Z,9.72
2022-12-28T19:29:05.177Z,9.64
2022-12-28T19:31:34.060Z,9.66
2022-12-28T19:34:01.131Z,9.70
2022-12-28T19:36:31.885Z,9.69
2022-12-28T19:38:58.640Z,9.60
2022-12-28T19:41:25.437Z,9.63
2022-12-28T19:43:52.274Z,9.58
2022-12-28T19:46:35.597Z,9.68
2022-12-28T19:49:04.217Z,9.52
2022-12-28T19:51:32.351Z,9.55
2022-12-28T19:54:00.618Z,9.59
2022-12-28T19:56:27.470Z,9.37
2022-12-28T19:58:58.076Z,9.49
2022-12-28T20:01:30.354Z,9.46
2022-12-28T20:03:57.484Z,9.53
2022-12-28T20:06:27.420Z,9.46
2022-12-28T20:08:56.861Z,9.44
2022-12-28T20:11:23.647Z,9.44
2022-12-28T20:14:04.461Z,9.50
2022-12-28T20:16:33.488Z,9.46
2022-12-28T20:19:01.973Z,9.44
2022-12-28T20:21:29.052Z,9.40
2022-12-28T20:23:55.887Z,9.46
2022-12-28T20:26:25.053Z,9.40
2022-12-28T20:28:52.155Z,9.40
2022-12-28T20:31:19.701Z,9.47
2022-12-28T20:33:46.817Z,9.41
2022-12-28T20:36:16.226Z,9.47
2022-12-28T20:38:43.637Z,9.44
2022-12-28T20:41:38.894Z,9.47
2022-12-28T20:44:10.259Z,9.43
2022-12-28T20:46:38.092Z,9.40
2022-12-28T20:49:05.715Z,9.41
2022-12-28T20:51:32.530Z,9.40
2022-12-28T20:53:59.517Z,9.36
2022-12-28T20:56:26.263Z,9.43
2022-12-28T20:58:53.311Z,9.43
2022-12-28T21:01:20.560Z,9.50
2022-12-28T21:03:47.820Z,9.49
2022-12-28T21:06:14.826Z,9.48
2022-12-28T21:08:41.491Z,9.52
2022-12-28T21:11:08.460Z,9.46
2022-12-28T21:13:38.093Z,9.48
2022-12-28T21:16:08.276Z,9.55
2022-12-28T21:18:35.862Z,9.57
2022-12-28T21:21:03.210Z,9.55
2022-12-28T21:23:30.715Z,9.66
2022-12-28T21:26:02.531Z,9.75
2022-12-28T21:28:29.793Z,9.72
2022-12-28T21:31:01.600Z,9.72
2022-12-28T21:33:28.261Z,9.73
2022-12-28T21:36:05.860Z,9.77
2022-12-28T21:38:33.349Z,9.71
2022-12-28T21:41:02.009Z,9.81
2022-12-28T21:43:30.253Z,9.78
2022-12-28T21:46:02.738Z,9.83
2022-12-28T21:48:33.922Z,9.74
2022-12-28T21:51:31.543Z,9.75
2022-12-28T21:53:59.562Z,9.76
2022-12-28T21:56:26.249Z,9.73
2022-12-28T21:58:53.196Z,9.74
2022-12-28T22:01:39.310Z,9.65
2022-12-28T22:04:26.969Z,9.82
2022-12-28T22:06:54.103Z,9.79
2022-12-28T22:09:39.501Z,9.69
2022-12-28T22:12:24.984Z,9.67
2022-12-28T22:15:12.787Z,9.67
2022-12-28T22:17:39.590Z,9.58
2022-12-28T22:20:10.072Z,9.59
2022-12-28T22:22:36.873Z,9.61
2022-12-28T22:25:03.881Z,9.62
2022-12-28T22:27:34.079Z,9.61
2022-12-28T22:30:00.838Z,9.53
2022-12-28T22:32:27.972Z,9.56
2022-12-28T22:34:54.729Z,9.54
2022-12-28T22:37:21.456Z,9.64
2022-12-28T22:39:48.406Z,9.59
2022-12-28T22:42:15.991Z,9.62
2022-12-28T22:44:42.910Z,9.63
2022-12-28T22:47:09.694Z,9.66
2022-12-28T22:49:36.414Z,9.69
2022-12-28T22:52:03.491Z,9.67
2022-12-28T22:54:30.660Z,9.71
2022-12-28T22:56:57.336Z,9.73
2022-12-28T22:59:24.163Z,9.71
2022-12-28T23:01:52.928Z,9.69
2022-12-28T23:04:20.315Z,9.76
2022-12-28T23:06:47.158Z,9.74
2022-12-28T23:09:14.172Z,9.69
2022-12-28T23:11:41.032Z,9.68
2022-12-28T23:14:33.112Z,9.74
2022-12-28T23:17:00.575Z,9.76
2022-12-28T23:19:46.651Z,9.84
2022-12-28T23:22:35.966Z,9.75
2022-12-28T23:25:22.923Z,9.72
2022-12-28T23:27:49.829Z,9.74
2022-12-28T23:30:19.692Z,9.76
2022-12-28T23:32:51.289Z,9.78
2022-12-28T23:35:20.108Z,9.64
2022-12-28T23:37:46.957Z,9.69
2022-12-28T23:40:15.897Z,9.73
2022-12-28T23:42:43.772Z,9.81
2022-12-28T23:45:14.218Z,9.80
2022-12-28T23:47:42.176Z,9.90
2022-12-28T23:50:09.745Z,9.87
2022-12-28T23:52:36.775Z,9.86
2022-12-28T23:55:03.850Z,9.79
2022-12-28T23:57:32.020Z,9.72
2022-12-28T23:59:58.829Z,9.79
